Time;durP1;ratioP1;P1;durP2;ratioP2;P2;SDS_P1;SDS_P2;PMS_P1;PMS_P2;Temp;Humidity;BMP_temperature;BMP_pressure;BME280_temperature;BME280_humidity;BME280_pressure;Samples;Min_cycle;Max_cycle;Signal;HPM_P1;HPM_P2
2023/04/06 00:00:23;;;;;;;7.38;4.20;;;;;;;;;;5090055;28;20028;-82
2023/04/06 00:02:49;;;;;;;7.47;4.32;;;;;;;;;;5079835;28;20036;-81
2023/04/06 00:05:14;;;;;;;8.98;4.50;;;;;;;;;;5084362;28;20032;-81
2023/04/06 00:07:40;;;;;;;8.32;4.57;;;;;;;;;;5083307;28;20033;-82
2023/04/06 00:10:06;;;;;;;8.20;4.50;;;;;;;;;;5075208;28;20170;-81
2023/04/06 00:12:32;;;;;;;6.80;4.35;;;;;;;;;;5059417;28;20033;-81
2023/04/06 00:14:57;;;;;;;7.57;4.20;;;;;;;;;;5057141;28;20043;-81
2023/04/06 00:17:23;;;;;;;7.07;4.40;;;;;;;;;;5074673;28;20072;-82
2023/04/06 00:19:48;;;;;;;5.78;3.97;;;;;;;;;;5074055;28;20033;-81
2023/04/06 00:22:14;;;;;;;6.00;4.00;;;;;;;;;;5066834;28;20079;-81
2023/04/06 00:24:39;;;;;;;6.32;4.07;;;;;;;;;;5070934;28;20138;-82
2023/04/06 00:27:05;;;;;;;7.60;4.22;;;;;;;;;;5087606;28;20041;-81
2023/04/06 00:29:31;;;;;;;5.88;4.10;;;;;;;;;;5058760;28;20033;-82
2023/04/06 00:31:56;;;;;;;8.60;4.35;;;;;;;;;;5063208;28;20410;-81
2023/04/06 00:34:22;;;;;;;7.07;4.00;;;;;;;;;;5065237;28;20084;-80
2023/04/06 00:36:47;;;;;;;7.10;4.13;;;;;;;;;;5084280;28;20040;-81
2023/04/06 00:39:13;;;;;;;9.40;4.15;;;;;;;;;;5088362;28;20036;-81
2023/04/06 00:41:45;;;;;;;6.15;3.67;;;;;;;;;;5072169;28;20040;-81
2023/04/06 00:44:11;;;;;;;9.50;4.40;;;;;;;;;;5066703;28;20449;-81
2023/04/06 00:46:36;;;;;;;7.55;4.78;;;;;;;;;;5064805;28;20035;-82
2023/04/06 00:49:02;;;;;;;10.43;4.93;;;;;;;;;;5060386;28;20414;-82
2023/04/06 00:51:27;;;;;;;7.03;4.55;;;;;;;;;;5057124;28;20056;-81
2023/04/06 00:53:54;;;;;;;8.30;5.00;;;;;;;;;;5055024;28;20047;-82
2023/04/06 00:56:23;;;;;;;9.32;5.07;;;;;;;;;;5061166;28;20029;-82
2023/04/06 00:58:52;;;;;;;7.55;4.68;;;;;;;;;;5069850;28;20033;-81
2023/04/06 01:01:17;;;;;;;8.15;4.68;;;;;;;;;;5066357;28;20047;-81
2023/04/06 01:03:47;;;;;;;8.10;4.60;;;;;;;;;;5072445;28;20044;-81
2023/04/06 01:06:16;;;;;;;7.35;4.57;;;;;;;;;;5072380;28;20409;-81
2023/04/06 01:08:43;;;;;;;10.63;4.70;;;;;;;;;;5055531;28;20040;-82
2023/04/06 01:11:20;;;;;;;7.65;4.43;;;;;;;;;;5084956;28;20111;-82
2023/04/06 01:13:48;;;;;;;11.32;4.47;;;;;;;;;;5071649;28;20064;-82
2023/04/06 01:16:34;;;;;;;7.53;4.10;;;;;;;;;;5062855;28;20045;-82
2023/04/06 01:19:13;;;;;;;6.32;4.00;;;;;;;;;;5073190;28;20024;-81
2023/04/06 01:21:44;;;;;;;6.57;4.03;;;;;;;;;;5048745;28;20064;-82
2023/04/06 01:24:21;;;;;;;9.75;3.80;;;;;;;;;;5068545;28;20040;-81
2023/04/06 01:27:02;;;;;;;9.35;4.07;;;;;;;;;;5078192;28;20063;-82
2023/04/06 01:29:42;;;;;;;7.30;4.10;;;;;;;;;;5077034;28;20079;-82
2023/04/06 01:32:10;;;;;;;9.45;4.40;;;;;;;;;;5061681;28;20042;-82
2023/04/06 01:34:45;;;;;;;7.35;3.90;;;;;;;;;;5073455;28;20037;-81
2023/04/06 01:37:10;;;;;;;6.55;4.28;;;;;;;;;;5084349;28;20041;-81
2023/04/06 01:39:37;;;;;;;8.60;4.32;;;;;;;;;;5081914;28;20044;-81
2023/04/06 01:42:04;;;;;;;6.10;3.95;;;;;;;;;;5060862;28;20044;-81
2023/04/06 01:44:32;;;;;;;7.13;4.05;;;;;;;;;;5059541;28;20044;-81
2023/04/06 01:47:06;;;;;;;8.98;4.05;;;;;;;;;;5072801;28;20025;-81
2023/04/06 01:49:32;;;;;;;7.13;4.03;;;;;;;;;;5069677;28;20417;-82
2023/04/06 01:51:58;;;;;;;7.22;4.18;;;;;;;;;;5065787;28;20056;-81
2023/04/06 01:54:24;;;;;;;8.30;4.28;;;;;;;;;;5075103;28;20031;-82
2023/04/06 01:57:10;;;;;;;9.00;4.57;;;;;;;;;;5068610;28;20105;-81
2023/04/06 01:59:46;;;;;;;7.00;4.53;;;;;;;;;;5073343;28;20401;-82
2023/04/06 02:02:27;;;;;;;10.77;4.50;;;;;;;;;;5067745;28;20037;-82
2023/04/06 02:05:03;;;;;;;8.90;4.63;;;;;;;;;;5060696;28;20047;-82
2023/04/06 02:07:29;;;;;;;6.57;4.32;;;;;;;;;;5092610;28;20115;-81
2023/04/06 02:09:55;;;;;;;7.03;4.28;;;;;;;;;;5075700;28;20040;-81
2023/04/06 02:12:26;;;;;;;9.48;4.40;;;;;;;;;;5080284;28;20063;-82
2023/04/06 02:14:52;;;;;;;9.00;4.72;;;;;;;;;;5066363;28;20036;-82
2023/04/06 02:17:17;;;;;;;6.70;4.55;;;;;;;;;;5086701;28;20028;-81
2023/04/06 02:19:43;;;;;;;7.35;4.40;;;;;;;;;;5077968;28;20532;-81
2023/04/06 02:22:09;;;;;;;8.75;4.53;;;;;;;;;;5076010;28;20037;-81
2023/04/06 02:24:35;;;;;;;7.85;4.55;;;;;;;;;;5054890;28;20478;-81
2023/04/06 02:27:01;;;;;;;7.68;4.80;;;;;;;;;;5069658;28;20037;-81
2023/04/06 02:29:26;;;;;;;7.57;4.63;;;;;;;;;;5082306;28;20044;-79
2023/04/06 02:31:52;;;;;;;7.57;4.57;;;;;;;;;;5061519;28;20061;-81
2023/04/06 02:34:18;;;;;;;10.02;4.57;;;;;;;;;;5071525;28;20402;-80
2023/04/06 02:36:47;;;;;;;6.97;4.40;;;;;;;;;;5059906;28;20029;-80
2023/04/06 02:39:13;;;;;;;8.45;4.43;;;;;;;;;;5077179;28;20383;-81
2023/04/06 02:41:39;;;;;;;6.07;4.00;;;;;;;;;;5067681;28;20036;-81
2023/04/06 02:44:08;;;;;;;6.90;4.18;;;;;;;;;;5054861;28;20036;-81
2023/04/06 02:46:38;;;;;;;8.68;4.60;;;;;;;;;;5077544;28;20037;-81
2023/04/06 02:49:04;;;;;;;8.10;4.60;;;;;;;;;;5075532;28;20117;-81
2023/04/06 02:51:33;;;;;;;7.55;4.20;;;;;;;;;;5065964;28;20025;-81
2023/04/06 02:54:10;;;;;;;10.48;5.22;;;;;;;;;;5066188;28;20025;-81
2023/04/06 02:56:36;;;;;;;12.45;5.28;;;;;;;;;;5073970;28;20379;-81
2023/04/06 02:59:01;;;;;;;7.78;4.53;;;;;;;;;;5058516;28;20101;-81
2023/04/06 03:01:30;;;;;;;7.80;4.25;;;;;;;;;;5059849;28;20041;-81
2023/04/06 03:04:00;;;;;;;7.80;4.47;;;;;;;;;;5047335;28;20048;-81
2023/04/06 03:06:27;;;;;;;6.35;4.38;;;;;;;;;;5084948;28;20105;-82
2023/04/06 03:08:56;;;;;;;8.18;4.68;;;;;;;;;;5070947;28;20095;-81
2023/04/06 03:11:22;;;;;;;7.25;4.30;;;;;;;;;;5076973;28;20036;-82
2023/04/06 03:13:50;;;;;;;10.50;5.55;;;;;;;;;;5076307;28;20062;-81
2023/04/06 03:16:16;;;;;;;8.65;5.00;;;;;;;;;;5053541;28;20066;-81
2023/04/06 03:18:44;;;;;;;10.82;5.20;;;;;;;;;;5074848;28;20028;-81
2023/04/06 03:21:11;;;;;;;8.48;4.72;;;;;;;;;;5080351;28;20033;-81
2023/04/06 03:23:50;;;;;;;8.05;5.00;;;;;;;;;;5076523;28;20402;-81
2023/04/06 03:26:16;;;;;;;7.35;4.88;;;;;;;;;;5073646;28;20029;-81
2023/04/06 03:28:42;;;;;;;8.02;4.88;;;;;;;;;;5078954;28;20066;-81
2023/04/06 03:31:08;;;;;;;10.48;5.70;;;;;;;;;;5082648;28;20032;-81
2023/04/06 03:33:59;;;;;;;9.75;5.00;;;;;;;;;;5069145;28;20041;-81
2023/04/06 03:36:30;;;;;;;8.98;5.75;;;;;;;;;;5073252;28;20642;-82
2023/04/06 03:38:57;;;;;;;11.82;6.07;;;;;;;;;;5072136;28;20037;-82
2023/04/06 03:41:22;;;;;;;11.45;5.63;;;;;;;;;;5061380;28;20034;-81
2023/04/06 03:43:56;;;;;;;;;;;;;;;;;;5084453;28;20033;-80
2023/04/06 03:46:21;;;;;;;8.40;5.43;;;;;;;;;;5062828;28;20277;-81
2023/04/06 03:48:51;;;;;;;8.63;5.30;;;;;;;;;;5043305;28;20048;-82
2023/04/06 03:51:18;;;;;;;9.52;5.53;;;;;;;;;;5071285;28;20159;-81
2023/04/06 03:53:44;;;;;;;9.48;5.20;;;;;;;;;;5062338;28;20716;-82
2023/04/06 03:56:10;;;;;;;10.68;5.60;;;;;;;;;;5077304;28;20024;-81
2023/04/06 03:58:35;;;;;;;8.80;5.35;;;;;;;;;;5069745;28;20058;-81
2023/04/06 04:01:01;;;;;;;8.57;5.45;;;;;;;;;;5072363;28;20043;-81
2023/04/06 04:03:27;;;;;;;9.82;5.30;;;;;;;;;;5071409;28;20044;-80
2023/04/06 04:05:54;;;;;;;8.23;5.32;;;;;;;;;;5076087;28;20032;-82
2023/04/06 04:08:21;;;;;;;9.50;5.38;;;;;;;;;;5085103;28;20029;-81
2023/04/06 04:10:47;;;;;;;7.82;5.20;;;;;;;;;;5074457;28;20486;-81
2023/04/06 04:13:13;;;;;;;8.82;5.72;;;;;;;;;;5062437;28;20040;-81
2023/04/06 04:15:40;;;;;;;7.18;4.95;;;;;;;;;;5057064;28;20517;-81
2023/04/06 04:18:09;;;;;;;9.40;5.50;;;;;;;;;;5075615;28;20033;-81
2023/04/06 04:20:35;;;;;;;10.13;5.80;;;;;;;;;;5073053;28;20517;-81
2023/04/06 04:23:00;;;;;;;11.00;5.57;;;;;;;;;;5066178;28;20410;-81
2023/04/06 04:25:29;;;;;;;10.75;5.60;;;;;;;;;;5070593;28;20078;-81
2023/04/06 04:27:55;;;;;;;11.15;5.55;;;;;;;;;;5075059;28;20029;-81
2023/04/06 04:30:22;;;;;;;10.50;5.38;;;;;;;;;;5076344;28;20051;-82
2023/04/06 04:32:48;;;;;;;9.02;5.13;;;;;;;;;;5069220;28;20437;-82
2023/04/06 04:35:18;;;;;;;10.50;5.63;;;;;;;;;;5073842;28;20059;-82
2023/04/06 04:37:44;;;;;;;9.88;5.15;;;;;;;;;;5070278;28;20028;-81
2023/04/06 04:40:10;;;;;;;9.68;5.05;;;;;;;;;;5074498;28;20422;-81
2023/04/06 04:42:46;;;;;;;7.18;4.80;;;;;;;;;;5066335;28;20025;-82
2023/04/06 04:45:19;;;;;;;10.77;5.20;;;;;;;;;;5078479;28;20054;-81
2023/04/06 04:47:45;;;;;;;10.48;5.20;;;;;;;;;;5066485;28;20116;-82
2023/04/06 04:50:13;;;;;;;11.15;5.43;;;;;;;;;;5069076;28;20032;-81
2023/04/06 04:52:42;;;;;;;9.90;5.50;;;;;;;;;;5078770;28;20036;-81
2023/04/06 04:55:13;;;;;;;14.30;6.18;;;;;;;;;;5059496;28;20033;-81
2023/04/06 04:57:41;;;;;;;16.95;7.78;;;;;;;;;;5064570;28;20108;-82
2023/04/06 05:00:07;;;;;;;13.88;7.60;;;;;;;;;;5059387;28;20041;-81
2023/04/06 05:02:36;;;;;;;16.42;7.65;;;;;;;;;;5071639;28;20028;-81
2023/04/06 05:05:12;;;;;;;15.13;7.38;;;;;;;;;;5077549;28;20043;-81
2023/04/06 05:07:39;;;;;;;11.30;7.07;;;;;;;;;;5075723;28;20410;-81
2023/04/06 05:10:08;;;;;;;14.88;6.90;;;;;;;;;;5061743;28;20065;-81
2023/04/06 05:12:41;;;;;;;11.85;6.20;;;;;;;;;;5052430;28;20032;-81
2023/04/06 05:15:09;;;;;;;11.93;6.32;;;;;;;;;;5077180;28;20048;-81
2023/04/06 05:17:36;;;;;;;14.13;6.15;;;;;;;;;;5073260;28;20032;-82
2023/04/06 05:20:03;;;;;;;10.38;5.40;;;;;;;;;;5059283;28;20115;-82
2023/04/06 05:22:33;;;;;;;35.80;13.13;;;;;;;;;;5072280;28;20039;-81
2023/04/06 05:25:06;;;;;;;17.67;7.95;;;;;;;;;;5075105;28;20089;-80
2023/04/06 05:27:32;;;;;;;21.65;9.23;;;;;;;;;;5068344;28;20044;-81
2023/04/06 05:30:01;;;;;;;24.33;9.50;;;;;;;;;;5089185;28;20043;-81
2023/04/06 05:32:29;;;;;;;22.05;8.65;;;;;;;;;;5087917;28;20402;-80
2023/04/06 05:34:55;;;;;;;14.77;6.57;;;;;;;;;;5076860;28;20032;-80
2023/04/06 05:37:21;;;;;;;10.18;5.90;;;;;;;;;;5062870;28;20028;-81
2023/04/06 05:39:47;;;;;;;15.13;7.65;;;;;;;;;;5064544;28;20039;-80
2023/04/06 05:42:12;;;;;;;16.27;8.80;;;;;;;;;;5071690;28;20116;-81
2023/04/06 05:44:55;;;;;;;24.05;9.38;;;;;;;;;;5075597;28;20410;-81
2023/04/06 05:47:20;;;;;;;18.45;9.48;;;;;;;;;;5055834;28;20079;-81
2023/04/06 05:49:52;;;;;;;15.40;6.40;;;;;;;;;;5084490;28;20032;-81
2023/04/06 05:52:27;;;;;;;9.65;5.70;;;;;;;;;;5063774;28;20029;-81
2023/04/06 05:54:53;;;;;;;11.07;5.80;;;;;;;;;;5077159;28;20028;-81
2023/04/06 05:57:19;;;;;;;9.48;5.50;;;;;;;;;;5058698;28;20021;-80
2023/04/06 05:59:45;;;;;;;11.50;6.13;;;;;;;;;;5064388;28;20107;-81
2023/04/06 06:02:12;;;;;;;9.52;5.78;;;;;;;;;;5048982;28;20043;-81
2023/04/06 06:04:42;;;;;;;8.90;5.50;;;;;;;;;;5067622;28;20040;-81
2023/04/06 06:07:07;;;;;;;8.48;5.53;;;;;;;;;;5063366;28;20086;-81
2023/04/06 06:09:40;;;;;;;12.00;5.20;;;;;;;;;;5077069;28;20024;-81
2023/04/06 06:12:23;;;;;;;9.68;5.18;;;;;;;;;;5088529;28;20063;-81
2023/04/06 06:14:50;;;;;;;9.73;5.40;;;;;;;;;;5059392;28;20063;-80
2023/04/06 06:17:15;;;;;;;9.30;5.32;;;;;;;;;;5097491;28;20017;-80
2023/04/06 06:19:44;;;;;;;10.27;5.40;;;;;;;;;;5089308;28;20055;-80
2023/04/06 06:22:10;;;;;;;9.18;5.20;;;;;;;;;;5085721;28;20032;-80
2023/04/06 06:24:39;;;;;;;8.90;5.38;;;;;;;;;;5083312;28;20028;-80
2023/04/06 06:27:05;;;;;;;8.25;5.10;;;;;;;;;;5084160;28;20063;-80
2023/04/06 06:29:33;;;;;;;9.32;5.32;;;;;;;;;;5059018;28;20033;-81
2023/04/06 06:31:59;;;;;;;9.00;5.40;;;;;;;;;;5079877;28;20493;-82
2023/04/06 06:34:25;;;;;;;9.63;5.07;;;;;;;;;;5061547;28;20040;-81
2023/04/06 06:36:51;;;;;;;10.85;5.60;;;;;;;;;;5073069;28;20494;-81
2023/04/06 06:39:17;;;;;;;12.68;6.40;;;;;;;;;;5074175;28;20048;-81
2023/04/06 06:41:42;;;;;;;9.55;5.60;;;;;;;;;;5069531;28;20032;-81
2023/04/06 06:44:08;;;;;;;13.35;6.97;;;;;;;;;;5064649;28;20037;-81
2023/04/06 06:46:34;;;;;;;12.10;6.82;;;;;;;;;;5058599;28;20605;-80
2023/04/06 06:49:00;;;;;;;11.50;6.22;;;;;;;;;;5058611;28;20029;-80
2023/04/06 06:51:25;;;;;;;8.52;5.80;;;;;;;;;;5060266;28;20414;-80
2023/04/06 06:53:51;;;;;;;10.45;5.40;;;;;;;;;;5080600;28;20111;-80
2023/04/06 06:56:17;;;;;;;10.05;5.53;;;;;;;;;;5086148;28;20052;-81
2023/04/06 06:58:43;;;;;;;10.20;5.10;;;;;;;;;;5059098;28;20556;-81
2023/04/06 07:01:08;;;;;;;7.47;5.13;;;;;;;;;;5076759;28;20032;-81
2023/04/06 07:03:34;;;;;;;10.18;5.38;;;;;;;;;;5071687;28;20104;-81
2023/04/06 07:06:00;;;;;;;9.10;5.60;;;;;;;;;;5086093;28;20041;-81
2023/04/06 07:08:25;;;;;;;10.73;5.75;;;;;;;;;;5064988;28;20033;-80
2023/04/06 07:10:52;;;;;;;9.20;5.15;;;;;;;;;;5073129;28;20082;-80
2023/04/06 07:13:22;;;;;;;9.55;5.25;;;;;;;;;;5077088;28;20036;-81
2023/04/06 07:15:50;;;;;;;8.73;5.20;;;;;;;;;;5088061;28;20033;-81
2023/04/06 07:18:16;;;;;;;7.80;4.88;;;;;;;;;;5069972;28;20097;-81
2023/04/06 07:20:42;;;;;;;8.50;5.13;;;;;;;;;;5066457;28;20055;-81
2023/04/06 07:23:07;;;;;;;7.95;4.95;;;;;;;;;;5074668;28;20111;-81
2023/04/06 07:25:33;;;;;;;10.80;4.55;;;;;;;;;;5077097;28;20553;-80
2023/04/06 07:27:58;;;;;;;7.85;4.70;;;;;;;;;;5067422;28;20063;-80
2023/04/06 07:30:27;;;;;;;7.13;4.53;;;;;;;;;;5079067;28;20056;-82
2023/04/06 07:32:55;;;;;;;9.20;5.20;;;;;;;;;;5049807;28;20028;-82
2023/04/06 07:35:23;;;;;;;7.28;4.68;;;;;;;;;;5076194;28;20033;-81
2023/04/06 07:37:49;;;;;;;7.57;4.72;;;;;;;;;;5091116;28;20033;-81
2023/04/06 07:40:15;;;;;;;7.82;4.93;;;;;;;;;;5069414;28;20041;-81
2023/04/06 07:42:41;;;;;;;10.15;5.18;;;;;;;;;;5045247;28;20036;-82
2023/04/06 07:45:08;;;;;;;11.13;5.07;;;;;;;;;;5082759;28;20062;-81
2023/04/06 07:47:33;;;;;;;7.75;4.93;;;;;;;;;;5070125;28;20056;-82
2023/04/06 07:50:00;;;;;;;8.13;4.93;;;;;;;;;;5077740;28;20516;-82
2023/04/06 07:52:26;;;;;;;10.00;5.10;;;;;;;;;;5089869;22;20037;-87
2023/04/06 07:54:51;;;;;;;8.65;5.15;;;;;;;;;;5053568;28;20025;-85
2023/04/06 07:57:18;;;;;;;10.73;5.82;;;;;;;;;;5054424;28;20540;-85
2023/04/06 07:59:43;;;;;;;10.40;5.70;;;;;;;;;;5054439;28;20448;-86
2023/04/06 08:02:09;;;;;;;10.95;5.55;;;;;;;;;;5052156;28;20041;-85
2023/04/06 08:04:35;;;;;;;7.38;4.88;;;;;;;;;;5059654;28;20067;-86
2023/04/06 08:07:02;;;;;;;14.18;7.30;;;;;;;;;;5057162;28;20048;-84
2023/04/06 08:09:27;;;;;;;10.48;5.88;;;;;;;;;;5052836;28;20032;-85
2023/04/06 08:11:53;;;;;;;8.25;5.47;;;;;;;;;;5054329;28;20067;-83
2023/04/06 08:14:19;;;;;;;11.57;7.45;;;;;;;;;;5070702;28;20533;-82
2023/04/06 08:16:45;;;;;;;11.88;8.02;;;;;;;;;;5055673;28;20033;-84
2023/04/06 08:19:11;;;;;;;9.52;6.22;;;;;;;;;;5054389;28;20033;-85
2023/04/06 08:21:36;;;;;;;9.82;5.70;;;;;;;;;;5053917;28;20030;-87
2023/04/06 08:24:02;;;;;;;12.30;7.00;;;;;;;;;;5054496;28;20032;-84
2023/04/06 08:26:28;;;;;;;7.50;5.28;;;;;;;;;;5049489;28;20041;-84
2023/04/06 08:28:54;;;;;;;9.25;6.03;;;;;;;;;;5055446;28;20540;-84
2023/04/06 08:31:20;;;;;;;11.90;5.28;;;;;;;;;;5055324;28;20040;-82
2023/04/06 08:33:45;;;;;;;10.55;5.22;;;;;;;;;;5054786;28;20064;-87
2023/04/06 08:36:13;;;;;;;8.85;4.82;;;;;;;;;;5054245;28;20037;-86
2023/04/06 08:38:40;;;;;;;9.30;5.38;;;;;;;;;;5050936;28;20037;-83
2023/04/06 08:41:13;;;;;;;9.15;5.70;;;;;;;;;;5054028;28;20056;-84
2023/04/06 08:43:52;;;;;;;;;;;;;;;;;;5055304;28;20037;-80
2023/04/06 08:46:18;;;;;;;8.00;5.25;;;;;;;;;;5055908;28;19916;-84
2023/04/06 08:48:45;;;;;;;9.68;5.43;;;;;;;;;;5057855;28;20498;-85
2023/04/06 08:51:11;;;;;;;11.80;5.63;;;;;;;;;;5058191;28;20044;-83
2023/04/06 08:53:37;;;;;;;8.60;5.38;;;;;;;;;;5052339;28;20037;-85
2023/04/06 08:56:03;;;;;;;7.75;5.50;;;;;;;;;;5050780;28;20452;-84
2023/04/06 08:58:35;;;;;;;8.32;5.50;;;;;;;;;;5051694;28;20118;-83
2023/04/06 09:01:05;;;;;;;9.48;5.57;;;;;;;;;;5050026;28;20032;-85
2023/04/06 09:03:31;;;;;;;8.48;5.50;;;;;;;;;;5065067;28;20029;-84
2023/04/06 09:05:58;;;;;;;7.82;5.32;;;;;;;;;;5051746;28;20073;-85
2023/04/06 09:08:24;;;;;;;9.13;5.40;;;;;;;;;;5051334;28;20407;-85
2023/04/06 09:10:51;;;;;;;7.78;5.28;;;;;;;;;;5051415;28;20033;-84
2023/04/06 09:13:17;;;;;;;7.35;5.25;;;;;;;;;;5053161;28;20036;-83
2023/04/06 09:15:42;;;;;;;8.90;5.60;;;;;;;;;;5049969;28;20047;-83
2023/04/06 09:18:08;;;;;;;9.60;6.20;;;;;;;;;;5058960;28;20033;-85
2023/04/06 09:20:34;;;;;;;8.57;5.63;;;;;;;;;;5055163;28;20040;-83
2023/04/06 09:23:00;;;;;;;8.55;5.20;;;;;;;;;;5053564;28;20094;-84
2023/04/06 09:25:29;;;;;;;8.55;5.57;;;;;;;;;;5054182;28;20040;-83
2023/04/06 09:28:00;;;;;;;8.43;5.30;;;;;;;;;;5053334;28;20045;-83
2023/04/06 09:30:26;;;;;;;8.02;5.20;;;;;;;;;;5054757;28;20041;-85
2023/04/06 09:32:54;;;;;;;6.65;5.18;;;;;;;;;;5054328;28;20036;-85
2023/04/06 09:35:21;;;;;;;9.35;5.70;;;;;;;;;;5056779;28;20510;-85
2023/04/06 09:37:50;;;;;;;7.82;5.30;;;;;;;;;;5057576;28;20100;-84
2023/04/06 09:40:17;;;;;;;8.60;5.68;;;;;;;;;;5056523;28;20045;-83
2023/04/06 09:42:50;;;;;;;8.63;5.30;;;;;;;;;;5074835;28;20037;-86
2023/04/06 09:45:16;;;;;;;9.20;5.70;;;;;;;;;;5056312;28;20036;-86
2023/04/06 09:47:44;;;;;;;10.27;5.72;;;;;;;;;;5058472;28;20485;-86
2023/04/06 09:50:14;;;;;;;8.40;5.55;;;;;;;;;;5057834;28;20044;-85
2023/04/06 09:52:51;;;;;;;9.00;5.70;;;;;;;;;;5056545;28;20506;-84
2023/04/06 09:55:40;;;;;;;6.93;5.22;;;;;;;;;;5061077;28;20037;-84
2023/04/06 09:58:09;;;;;;;8.07;5.07;;;;;;;;;;5052092;28;20086;-86
2023/04/06 10:00:44;;;;;;;10.60;5.63;;;;;;;;;;5050397;28;20119;-83
2023/04/06 10:03:31;;;;;;;7.70;5.35;;;;;;;;;;5055201;28;20033;-85
2023/04/06 10:06:03;;;;;;;11.07;5.47;;;;;;;;;;5069884;28;20162;-85
2023/04/06 10:08:29;;;;;;;8.73;5.60;;;;;;;;;;5048954;28;20441;-83
2023/04/06 10:10:55;;;;;;;7.47;5.55;;;;;;;;;;5054876;28;20021;-85
2023/04/06 10:13:23;;;;;;;8.35;5.70;;;;;;;;;;5054917;28;20166;-85
2023/04/06 10:15:49;;;;;;;7.45;5.55;;;;;;;;;;5055167;28;20122;-84
2023/04/06 10:18:16;;;;;;;8.63;5.50;;;;;;;;;;5053775;28;20058;-85
2023/04/06 10:20:49;;;;;;;7.82;5.72;;;;;;;;;;5054600;28;20033;-82
2023/04/06 10:23:38;;;;;;;8.73;5.38;;;;;;;;;;5051404;28;20039;-84
2023/04/06 10:26:03;;;;;;;9.48;5.85;;;;;;;;;;5052523;28;20040;-84
2023/04/06 10:28:35;;;;;;;9.27;5.32;;;;;;;;;;5055328;28;20037;-84
2023/04/06 10:31:05;;;;;;;8.13;5.20;;;;;;;;;;5063206;28;20028;-86
2023/04/06 10:33:31;;;;;;;8.43;5.68;;;;;;;;;;5057835;28;20057;-86
2023/04/06 10:35:57;;;;;;;7.18;5.70;;;;;;;;;;5058042;28;20052;-85
2023/04/06 10:38:37;;;;;;;11.73;5.85;;;;;;;;;;5057826;28;20029;-84
2023/04/06 10:41:07;;;;;;;9.48;5.93;;;;;;;;;;5057354;28;20041;-85
2023/04/06 10:43:37;;;;;;;8.35;5.38;;;;;;;;;;5057033;28;20098;-86
2023/04/06 10:46:04;;;;;;;8.98;5.82;;;;;;;;;;5057047;28;20044;-84
2023/04/06 10:48:56;;;;;;;8.80;5.47;;;;;;;;;;5056641;28;20135;-85
2023/04/06 10:51:27;;;;;;;9.20;6.15;;;;;;;;;;5050087;28;20045;-85
2023/04/06 10:53:54;;;;;;;9.73;6.32;;;;;;;;;;5057183;28;20041;-85
2023/04/06 10:56:22;;;;;;;9.68;6.13;;;;;;;;;;5059610;28;20487;-85
2023/04/06 10:58:50;;;;;;;9.38;5.85;;;;;;;;;;5059652;28;20043;-84
2023/04/06 11:01:17;;;;;;;10.55;6.35;;;;;;;;;;5056565;28;20033;-84
2023/04/06 11:03:47;;;;;;;9.95;6.18;;;;;;;;;;5055994;28;20429;-85
2023/04/06 11:06:24;;;;;;;8.23;5.85;;;;;;;;;;5054700;28;20397;-84
2023/04/06 11:08:50;;;;;;;9.43;5.90;;;;;;;;;;5053642;28;20513;-85
2023/04/06 11:11:19;;;;;;;7.97;5.65;;;;;;;;;;5054577;28;20029;-85
2023/04/06 11:13:46;;;;;;;9.07;5.80;;;;;;;;;;5053995;28;20036;-86
2023/04/06 11:16:16;;;;;;;8.30;6.10;;;;;;;;;;5051176;28;20040;-84
2023/04/06 11:18:51;;;;;;;8.77;6.10;;;;;;;;;;5052257;28;20029;-85
2023/04/06 11:21:18;;;;;;;7.45;5.78;;;;;;;;;;5051961;28;20036;-84
2023/04/06 11:23:43;;;;;;;9.05;6.20;;;;;;;;;;5053198;28;20041;-85
2023/04/06 11:26:13;;;;;;;11.63;6.30;;;;;;;;;;5068810;28;20091;-82
2023/04/06 11:28:41;;;;;;;7.65;5.55;;;;;;;;;;5053114;28;20089;-84
2023/04/06 11:31:09;;;;;;;10.23;6.28;;;;;;;;;;5052841;28;20024;-83
2023/04/06 11:33:38;;;;;;;9.20;6.18;;;;;;;;;;5053184;28;20037;-85
2023/04/06 11:36:05;;;;;;;9.70;6.22;;;;;;;;;;5052178;28;20025;-84
2023/04/06 11:38:31;;;;;;;8.60;5.70;;;;;;;;;;5054229;28;20044;-85
2023/04/06 11:40:56;;;;;;;9.25;6.57;;;;;;;;;;5055215;28;20080;-85
2023/04/06 11:43:32;;;;;;;8.43;6.25;;;;;;;;;;5053200;28;20034;-84
2023/04/06 11:46:02;;;;;;;9.73;5.75;;;;;;;;;;5057004;28;20193;-82
2023/04/06 11:48:28;;;;;;;9.45;6.28;;;;;;;;;;5055748;28;20037;-84
2023/04/06 11:51:00;;;;;;;11.18;5.78;;;;;;;;;;5058231;28;20021;-83
2023/04/06 11:53:27;;;;;;;10.10;5.85;;;;;;;;;;5058912;28;20036;-83
2023/04/06 11:55:53;;;;;;;10.27;6.50;;;;;;;;;;5059415;28;20059;-86
2023/04/06 11:58:19;;;;;;;8.63;5.88;;;;;;;;;;5060365;28;20028;-86
2023/04/06 12:00:45;;;;;;;10.95;6.22;;;;;;;;;;5060655;28;20044;-86
2023/04/06 12:03:11;;;;;;;8.52;5.72;;;;;;;;;;5054574;28;20037;-86
2023/04/06 12:05:37;;;;;;;9.00;5.85;;;;;;;;;;5055041;28;20037;-84
2023/04/06 12:08:03;;;;;;;8.32;5.88;;;;;;;;;;5055427;28;20041;-87
2023/04/06 12:10:29;;;;;;;9.00;5.80;;;;;;;;;;5036606;28;20441;-87
2023/04/06 12:12:55;;;;;;;10.07;5.90;;;;;;;;;;5055206;28;20406;-84
2023/04/06 12:15:20;;;;;;;8.93;5.60;;;;;;;;;;5054956;28;20025;-85
2023/04/06 12:17:46;;;;;;;8.45;5.75;;;;;;;;;;5070353;28;20096;-84
2023/04/06 12:20:11;;;;;;;10.15;5.90;;;;;;;;;;5054836;28;20064;-84
2023/04/06 12:22:37;;;;;;;11.40;5.90;;;;;;;;;;5031653;28;20115;-85
2023/04/06 12:25:03;;;;;;;10.07;6.13;;;;;;;;;;5068492;28;20033;-85
2023/04/06 12:27:28;;;;;;;9.40;6.15;;;;;;;;;;5055218;28;20113;-83
2023/04/06 12:29:55;;;;;;;9.20;6.10;;;;;;;;;;5054712;28;20100;-85
2023/04/06 12:32:21;;;;;;;9.75;5.97;;;;;;;;;;5052642;28;20025;-85
2023/04/06 12:34:46;;;;;;;8.60;6.38;;;;;;;;;;5055117;28;20035;-84
2023/04/06 12:37:12;;;;;;;9.00;5.57;;;;;;;;;;5052215;28;20479;-83
2023/04/06 12:39:38;;;;;;;9.20;5.70;;;;;;;;;;5052364;28;20051;-85
2023/04/06 12:42:04;;;;;;;9.70;5.90;;;;;;;;;;5050925;28;20072;-85
2023/04/06 12:44:30;;;;;;;11.35;5.82;;;;;;;;;;5049195;28;20037;-85
2023/04/06 12:46:56;;;;;;;8.40;6.00;;;;;;;;;;5052136;28;20068;-85
2023/04/06 12:49:21;;;;;;;9.73;5.57;;;;;;;;;;5050719;28;20039;-83
2023/04/06 12:51:47;;;;;;;10.18;6.13;;;;;;;;;;5032478;28;20120;-85
2023/04/06 12:54:13;;;;;;;7.57;5.80;;;;;;;;;;5054190;28;20090;-83
2023/04/06 12:56:38;;;;;;;9.65;6.40;;;;;;;;;;5060513;28;20037;-83
2023/04/06 12:59:05;;;;;;;13.65;6.50;;;;;;;;;;5057161;28;20037;-85
2023/04/06 13:01:30;;;;;;;8.57;6.00;;;;;;;;;;5057675;28;20048;-84
2023/04/06 13:03:57;;;;;;;10.25;5.88;;;;;;;;;;5062190;28;20021;-81
2023/04/06 13:06:27;;;;;;;10.60;6.20;;;;;;;;;;5054205;28;20097;-86
2023/04/06 13:08:52;;;;;;;9.55;6.78;;;;;;;;;;5057855;28;20036;-85
2023/04/06 13:11:20;;;;;;;9.02;6.38;;;;;;;;;;5060393;28;20096;-82
2023/04/06 13:13:45;;;;;;;9.63;6.30;;;;;;;;;;5061505;28;20119;-86
2023/04/06 13:16:11;;;;;;;11.65;6.47;;;;;;;;;;5051559;28;20068;-85
2023/04/06 13:18:38;;;;;;;9.02;5.90;;;;;;;;;;5038539;28;20059;-83
2023/04/06 13:21:05;;;;;;;10.15;6.55;;;;;;;;;;5041355;28;20108;-85
2023/04/06 13:23:31;;;;;;;8.32;6.22;;;;;;;;;;5061569;28;20503;-85
2023/04/06 13:26:01;;;;;;;9.63;6.55;;;;;;;;;;5043783;28;20490;-83
2023/04/06 13:28:27;;;;;;;12.65;6.57;;;;;;;;;;5061876;28;20072;-84
2023/04/06 13:30:53;;;;;;;7.45;5.93;;;;;;;;;;5061404;28;20029;-87
2023/04/06 13:33:19;;;;;;;11.07;6.55;;;;;;;;;;5061883;28;20033;-85
2023/04/06 13:35:46;;;;;;;8.38;6.10;;;;;;;;;;5059687;28;20025;-85
2023/04/06 13:38:12;;;;;;;7.93;5.68;;;;;;;;;;5061836;28;20135;-87
2023/04/06 13:40:41;;;;;;;8.20;5.68;;;;;;;;;;5060136;28;20056;-83
2023/04/06 13:43:07;;;;;;;11.07;5.80;;;;;;;;;;5061067;28;20044;-85
2023/04/06 13:45:33;;;;;;;9.25;6.03;;;;;;;;;;5062645;28;20037;-86
2023/04/06 13:47:58;;;;;;;9.27;6.10;;;;;;;;;;5060747;28;20064;-87
2023/04/06 13:50:27;;;;;;;8.38;6.20;;;;;;;;;;5062570;28;20044;-87
2023/04/06 13:52:53;;;;;;;10.80;6.10;;;;;;;;;;5059113;28;20103;-85
2023/04/06 13:55:18;;;;;;;9.98;6.13;;;;;;;;;;5061542;28;20064;-86
2023/04/06 13:57:44;;;;;;;8.23;5.97;;;;;;;;;;5062488;28;20052;-86
2023/04/06 14:00:12;;;;;;;9.02;6.22;;;;;;;;;;5062776;28;20041;-85
2023/04/06 14:02:39;;;;;;;9.35;6.28;;;;;;;;;;5062750;28;20060;-84
2023/04/06 14:05:05;;;;;;;9.02;6.22;;;;;;;;;;5065107;28;20052;-84
2023/04/06 14:07:30;;;;;;;10.68;6.20;;;;;;;;;;5071400;28;20072;-86
2023/04/06 14:09:56;;;;;;;9.43;5.97;;;;;;;;;;5060160;28;20056;-87
2023/04/06 14:12:21;;;;;;;9.70;6.80;;;;;;;;;;5064958;28;20033;-87
2023/04/06 14:14:46;;;;;;;17.65;11.60;;;;;;;;;;5061429;28;20128;-83
2023/04/06 14:17:12;;;;;;;10.73;6.82;;;;;;;;;;5058856;28;20138;-83
2023/04/06 14:19:38;;;;;;;12.18;7.63;;;;;;;;;;5053852;28;20410;-85
2023/04/06 14:22:04;;;;;;;8.88;6.63;;;;;;;;;;5054376;28;20095;-84
2023/04/06 14:24:30;;;;;;;9.10;6.15;;;;;;;;;;5053715;28;20048;-84
2023/04/06 14:26:56;;;;;;;9.90;6.22;;;;;;;;;;5056632;28;20040;-87
2023/04/06 14:29:22;;;;;;;9.55;6.85;;;;;;;;;;5068924;28;20037;-87
2023/04/06 14:31:48;;;;;;;7.93;5.93;;;;;;;;;;5071950;28;20418;-85
2023/04/06 14:34:13;;;;;;;8.55;6.13;;;;;;;;;;5058543;28;20508;-86
2023/04/06 14:36:39;;;;;;;9.20;6.65;;;;;;;;;;5058048;28;20108;-85
2023/04/06 14:39:05;;;;;;;9.48;6.50;;;;;;;;;;5057041;28;20410;-84
2023/04/06 14:41:32;;;;;;;10.00;6.97;;;;;;;;;;5056339;28;20045;-82
2023/04/06 14:43:58;;;;;;;9.07;6.97;;;;;;;;;;5056644;28;20096;-84